Aérodrome :
LOGIN :

S'inscrire | Disclaimer

   EN    FR    IT 

 










Légende :    VFR   VFR Marginal   IFR   IFR Intensif   IFR Très Intensif
Visi : 
Plafond : 
>= 8 km
>= 3000ft
5 à 8 km
1000 à 3000 ft
1500m à 5 km
500 à 1000 ft
800 à 1500m
200 à 500 ft
< 800m
< 200 ft
Symboles :   Orages  Brouillard  Fortes neiges  Fortes précipitations  Vent > 20 kt
SIGMETs :   Divers  Orages  Givrage  Turbulence  Onde Orograph.  Cendres Volcan.






- Altitude de l'aérodrome : 197 ft
- Code IATA : XOG


LFMO - Orange

DERNIER METAR :
  • 161130Z AUTO 35010KT 310V050 CAVOK 14/M01 Q1017 BECMG 36015G25KT

METARs EXPIRÉS :
  • 161100Z AUTO 34010KT CAVOK 13/M01 Q1018 BECMG 36015G25KT
  • 161030Z AUTO 34012KT 310V010 CAVOK 13/M00 Q1018 BECMG 36015G25KT
  • 161000Z AUTO 35014KT CAVOK 12/M01 Q1018 BECMG 36015G25KT
  • 160930Z AUTO 35014KT CAVOK 11/M01 Q1018 BECMG 36015G25KT
  • 160900Z AUTO 34017KT CAVOK 10/M01 Q1018 BECMG 36015G25KT

TAF TAF LFMO
Valide du 16 à 09h jusqu'au 17 à 09h UTC


160800Z 1609/1709 36015G25KT CAVOK TX15/1615Z TN06/1706Z
PROB30
TEMPO 1623/1704 36010KT SHRA SCT030TCU



MET'MAP, la Météo Aéronautique d'un coup d'oeil ! - Copyright ORBIFLY Décembre 2007 - Disclaimer

ORBIFLY MET'MAP TEAM :

Programmation & Développement : Alexandra Zaïnal
Sur une idée originale de : Baudouin d'Aumeries
Assistance à la programmation : Marc-Olivier Méhu
Soutien technique & logistique : Manuel Goepfert

Contact : metmap@orbifly.com




SOURCES & CREDITS :

   NOAA